createdAt,value
2022-08-19T00:02:11.560Z,27.15
2022-08-19T00:04:41.187Z,28.65
2022-08-19T00:07:11.322Z,27.33
2022-08-19T00:09:38.677Z,30.48
2022-08-19T00:12:06.742Z,30.05
2022-08-19T00:14:33.576Z,30.13
2022-08-19T00:17:02.006Z,28.98
2022-08-19T00:19:29.497Z,26.58
2022-08-19T00:21:57.504Z,29.10
2022-08-19T00:24:24.522Z,30.30
2022-08-19T00:26:56.110Z,28.73
2022-08-19T00:29:24.911Z,27.33
2022-08-19T00:31:57.367Z,31.52
2022-08-19T00:34:24.765Z,28.17
2022-08-19T00:36:51.845Z,28.70
2022-08-19T00:39:19.331Z,30.17
2022-08-19T00:41:49.759Z,27.52
2022-08-19T00:44:22.716Z,29.38
2022-08-19T00:46:58.554Z,24.83
2022-08-19T00:49:33.248Z,27.45
2022-08-19T00:52:13.091Z,26.38
2022-08-19T00:54:43.977Z,28.40
2022-08-19T00:57:16.127Z,31.05
2022-08-19T00:59:56.411Z,26.05
2022-08-19T01:02:31.134Z,32.95
2022-08-19T01:04:58.380Z,29.70
2022-08-19T01:07:25.728Z,27.83
2022-08-19T01:09:53.222Z,28.13
2022-08-19T01:12:20.356Z,29.08
2022-08-19T01:14:48.871Z,30.42
2022-08-19T01:17:17.164Z,33.92
2022-08-19T01:19:47.857Z,30.25
2022-08-19T01:22:35.987Z,29.58
2022-08-19T01:25:03.491Z,28.65
2022-08-19T01:27:43.720Z,33.38
2022-08-19T01:30:16.602Z,27.77
2022-08-19T01:32:44.803Z,26.85
2022-08-19T01:35:19.791Z,32.88
2022-08-19T01:37:57.317Z,29.73
2022-08-19T01:40:28.226Z,29.50
2022-08-19T01:42:55.543Z,31.70
2022-08-19T01:45:25.598Z,29.95
2022-08-19T01:48:01.952Z,28.08
2022-08-19T01:50:31.970Z,28.48
2022-08-19T01:53:02.390Z,26.23
2022-08-19T01:55:36.167Z,29.75
2022-08-19T01:58:15.620Z,30.38
2022-08-19T02:00:43.018Z,31.17
2022-08-19T02:03:13.122Z,31.95
2022-08-19T02:05:43.914Z,27.38
2022-08-19T02:08:15.129Z,29.52
2022-08-19T02:10:47.736Z,30.40
2022-08-19T02:13:14.869Z,33.63
2022-08-19T02:15:42.092Z,28.35
2022-08-19T02:18:11.607Z,29.92
2022-08-19T02:20:40.047Z,32.10
2022-08-19T02:23:13.365Z,32.47
2022-08-19T02:25:42.993Z,32.70
2022-08-19T02:28:14.505Z,32.28
2022-08-19T02:30:43.928Z,31.88
2022-08-19T02:33:11.783Z,34.03
2022-08-19T02:35:43.765Z,32.45
2022-08-19T02:38:28.982Z,33.65
2022-08-19T02:41:01.640Z,36.95
2022-08-19T02:43:33.833Z,39.60
2022-08-19T02:46:03.130Z,36.97
2022-08-19T02:48:29.976Z,38.10
2022-08-19T02:50:56.743Z,39.60
2022-08-19T02:53:25.915Z,39.90
2022-08-19T02:55:52.750Z,39.70
2022-08-19T02:58:20.438Z,46.47
2022-08-19T03:00:50.449Z,38.42
2022-08-19T03:03:18.244Z,40.60
2022-08-19T03:05:49.232Z,39.78
2022-08-19T03:08:23.035Z,41.72
2022-08-19T03:10:49.895Z,42.42
2022-08-19T03:13:19.086Z,42.03
2022-08-19T03:15:48.342Z,41.60
2022-08-19T03:18:16.080Z,47.03
2022-08-19T03:20:56.899Z,44.97
2022-08-19T03:23:24.845Z,42.63
2022-08-19T03:25:58.451Z,42.85
2022-08-19T03:28:42.346Z,43.22
2022-08-19T03:31:41.658Z,47.50
2022-08-19T03:34:05.509Z,48.40
2022-08-19T03:36:34.910Z,46.30
2022-08-19T03:39:02.266Z,50.72
2022-08-19T03:41:34.377Z,57.63
2022-08-19T03:44:17.646Z,59.03
2022-08-19T03:46:48.102Z,51.80
2022-08-19T03:49:15.179Z,52.70
2022-08-19T03:51:43.494Z,60.05
2022-08-19T03:54:13.823Z,55.15
2022-08-19T03:56:43.753Z,57.80
2022-08-19T03:59:14.399Z,59.70
2022-08-19T04:01:42.238Z,63.92
2022-08-19T04:04:10.016Z,62.78
2022-08-19T04:06:39.630Z,69.65
2022-08-19T04:09:10.414Z,65.45
2022-08-19T04:11:46.799Z,67.43
2022-08-19T04:14:17.219Z,72.85
2022-08-19T04:16:45.540Z,68.28
2022-08-19T04:19:17.549Z,69.82
2022-08-19T04:21:47.600Z,70.85
2022-08-19T04:24:15.230Z,70.85
2022-08-19T04:26:42.510Z,70.43
2022-08-19T04:29:16.025Z,63.67
2022-08-19T04:31:45.298Z,72.10
2022-08-19T04:34:16.086Z,70.03
2022-08-19T04:36:45.475Z,67.88
2022-08-19T04:39:16.620Z,70.22
2022-08-19T04:42:03.637Z,64.35
2022-08-19T04:44:35.830Z,64.32
2022-08-19T04:47:11.016Z,67.13
2022-08-19T04:49:41.371Z,64.53
2022-08-19T04:52:09.371Z,67.25
2022-08-19T04:54:38.806Z,63.72
2022-08-19T04:57:11.255Z,66.72
2022-08-19T04:59:39.724Z,62.17
2022-08-19T05:02:08.801Z,63.53
2022-08-19T05:04:36.777Z,65.10
2022-08-19T05:07:03.497Z,68.20
2022-08-19T05:09:52.578Z,63.30
2022-08-19T05:12:21.177Z,68.25
2022-08-19T05:14:48.962Z,69.95
2022-08-19T05:17:37.491Z,68.07
2022-08-19T05:20:25.042Z,67.20
2022-08-19T05:22:51.824Z,58.70
2022-08-19T05:25:20.995Z,58.75
2022-08-19T05:27:50.934Z,56.55
2022-08-19T05:30:18.818Z,56.45
2022-08-19T05:33:01.025Z,58.03
2022-08-19T05:35:29.127Z,55.42
2022-08-19T05:38:04.125Z,54.28
2022-08-19T05:40:30.970Z,57.83
2022-08-19T05:42:57.547Z,51.00
2022-08-19T05:45:24.214Z,54.08
2022-08-19T05:47:50.868Z,54.85
2022-08-19T05:50:18.514Z,48.88
2022-08-19T05:52:54.280Z,50.72
2022-08-19T05:55:21.328Z,45.67
2022-08-19T05:57:49.389Z,47.25
2022-08-19T06:00:18.664Z,44.20
2022-08-19T06:02:48.403Z,48.88
2022-08-19T06:05:15.630Z,48.92
2022-08-19T06:07:42.274Z,50.70
2022-08-19T06:10:11.760Z,45.20
2022-08-19T06:12:39.593Z,47.83
2022-08-19T06:15:15.325Z,46.95
2022-08-19T06:17:45.304Z,49.90
2022-08-19T06:20:15.942Z,49.80
2022-08-19T06:22:44.991Z,50.50
2022-08-19T06:25:12.653Z,47.25
2022-08-19T06:27:58.616Z,50.08
2022-08-19T06:30:27.656Z,42.92
2022-08-19T06:32:54.591Z,50.50
2022-08-19T06:35:21.483Z,48.80
2022-08-19T06:37:48.333Z,47.75
2022-08-19T06:40:17.850Z,47.45
2022-08-19T06:42:54.173Z,45.88
2022-08-19T06:45:34.960Z,47.42
2022-08-19T06:48:03.380Z,40.22
2022-08-19T06:50:32.790Z,45.03
2022-08-19T06:52:59.793Z,42.13
2022-08-19T06:55:35.061Z,44.10
2022-08-19T06:58:05.381Z,44.00
2022-08-19T07:00:34.822Z,41.35
2022-08-19T07:03:04.567Z,41.80
2022-08-19T07:05:45.415Z,44.08
2022-08-19T07:08:12.623Z,41.05
2022-08-19T07:10:44.854Z,43.03
2022-08-19T07:13:12.495Z,45.50
2022-08-19T07:15:39.797Z,45.58
2022-08-19T07:18:06.854Z,53.40
2022-08-19T07:20:33.786Z,43.67
2022-08-19T07:23:01.444Z,46.42
2022-08-19T07:25:34.084Z,44.53
2022-08-19T07:28:01.534Z,44.85
2022-08-19T07:30:28.630Z,46.70
2022-08-19T07:32:57.471Z,48.15
2022-08-19T07:35:24.748Z,44.63
2022-08-19T07:37:51.350Z,43.20
2022-08-19T07:40:18.106Z,40.83
2022-08-19T07:42:45.070Z,43.47
2022-08-19T07:45:12.794Z,44.75
2022-08-19T07:47:49.047Z,48.55
2022-08-19T07:50:20.781Z,46.47
2022-08-19T07:52:50.808Z,45.60
2022-08-19T07:55:40.625Z,57.65
2022-08-19T07:58:15.624Z,44.55
2022-08-19T08:00:44.349Z,46.85
2022-08-19T08:03:12.201Z,47.60
2022-08-19T08:06:00.706Z,48.95
2022-08-19T08:08:48.172Z,48.30
2022-08-19T08:11:20.713Z,46.83
2022-08-19T08:14:00.869Z,52.83
2022-08-19T08:16:34.655Z,47.55
2022-08-19T08:19:01.782Z,52.08
2022-08-19T08:21:28.961Z,46.28
2022-08-19T08:23:56.765Z,44.80
2022-08-19T08:26:25.952Z,43.60
2022-08-19T08:28:53.822Z,42.50
2022-08-19T08:31:21.641Z,44.50
2022-08-19T08:33:51.161Z,45.00
2022-08-19T08:36:18.380Z,44.72
2022-08-19T08:38:49.506Z,49.17
2022-08-19T08:41:35.889Z,47.30
2022-08-19T08:44:07.009Z,53.88
2022-08-19T08:46:41.056Z,47.17
2022-08-19T08:49:26.569Z,57.28
2022-08-19T08:52:05.277Z,50.38
2022-08-19T08:54:40.346Z,52.40
2022-08-19T08:57:40.682Z,49.72
2022-08-19T09:00:15.620Z,57.72
2022-08-19T09:02:45.223Z,60.28
2022-08-19T09:05:25.792Z,51.83
2022-08-19T09:08:06.876Z,56.88
2022-08-19T09:10:44.430Z,50.63
2022-08-19T09:13:53.219Z,57.45
2022-08-19T09:16:27.887Z,51.20
2022-08-19T09:18:59.875Z,50.25
2022-08-19T09:21:33.037Z,52.97
2022-08-19T09:24:03.418Z,53.40
2022-08-19T09:26:47.459Z,52.22
2022-08-19T09:29:22.594Z,56.65
2022-08-19T09:31:52.336Z,51.22
2022-08-19T09:34:22.149Z,46.15
2022-08-19T09:36:55.402Z,46.08
2022-08-19T09:39:22.613Z,42.72
2022-08-19T09:41:50.752Z,52.17
2022-08-19T09:44:18.212Z,50.50
2022-08-19T09:46:47.968Z,47.63
2022-08-19T09:49:18.368Z,45.10
2022-08-19T09:51:50.827Z,42.67
2022-08-19T09:54:23.408Z,45.83
2022-08-19T09:56:51.449Z,41.53
2022-08-19T09:59:18.202Z,42.45
2022-08-19T10:01:45.250Z,38.83
2022-08-19T10:04:19.655Z,36.33
2022-08-19T10:06:53.478Z,38.05
2022-08-19T10:12:02.572Z,36.55
2022-08-19T10:14:29.861Z,36.72
2022-08-19T10:16:57.519Z,38.65
2022-08-19T10:19:33.427Z,34.75
2022-08-19T10:22:04.616Z,34.88
2022-08-19T10:24:31.915Z,38.00
2022-08-19T10:27:00.042Z,35.72
2022-08-19T10:29:32.693Z,30.60
2022-08-19T10:32:09.714Z,28.05
2022-08-19T10:34:48.354Z,30.27
2022-08-19T10:37:23.525Z,26.10
2022-08-19T10:39:52.083Z,23.77
2022-08-19T10:42:19.751Z,26.58
2022-08-19T10:44:47.759Z,34.33
2022-08-19T10:47:25.434Z,32.63
2022-08-19T10:50:15.855Z,34.80
2022-08-19T10:52:49.182Z,38.92
2022-08-19T10:55:42.916Z,34.00
2022-08-19T10:58:15.357Z,39.50
2022-08-19T11:00:46.688Z,32.40
2022-08-19T11:03:13.759Z,33.42
2022-08-19T11:05:43.670Z,35.33
2022-08-19T11:08:22.789Z,38.42
2022-08-19T11:11:00.327Z,42.58
2022-08-19T11:13:29.557Z,34.92
2022-08-19T11:16:08.208Z,35.35
2022-08-19T11:18:41.560Z,38.40
2022-08-19T11:21:24.793Z,39.38
2022-08-19T11:26:24.170Z,41.65
2022-08-19T11:28:54.273Z,38.20
2022-08-19T11:31:24.818Z,36.15
2022-08-19T11:33:58.401Z,38.75
2022-08-19T11:36:25.213Z,31.85
2022-08-19T11:38:52.317Z,29.70
2022-08-19T11:41:24.503Z,31.23
2022-08-19T11:43:55.115Z,33.20
2022-08-19T11:46:24.866Z,31.83
2022-08-19T11:48:52.131Z,34.10
2022-08-19T11:51:25.702Z,39.78
2022-08-19T11:53:53.954Z,36.38
2022-08-19T11:56:22.404Z,36.00
2022-08-19T11:58:53.541Z,34.53
2022-08-19T12:01:23.485Z,36.25
2022-08-19T12:03:55.778Z,37.05
2022-08-19T12:06:31.030Z,35.13
2022-08-19T12:08:59.572Z,38.92
2022-08-19T12:11:28.737Z,39.22
2022-08-19T12:13:58.077Z,42.10
2022-08-19T12:16:29.025Z,40.30
2022-08-19T12:19:04.612Z,37.13
2022-08-19T12:21:34.167Z,36.55
2022-08-19T12:24:05.068Z,32.72
2022-08-19T12:26:32.503Z,35.30
2022-08-19T12:29:00.734Z,32.35
2022-08-19T12:31:29.843Z,26.33
2022-08-19T12:33:57.286Z,29.65
2022-08-19T12:36:26.037Z,24.63
2022-08-19T12:38:56.010Z,23.88
2022-08-19T12:41:26.123Z,26.77
2022-08-19T12:43:53.433Z,28.40
2022-08-19T12:46:22.253Z,28.20
2022-08-19T12:48:55.323Z,26.42
2022-08-19T12:51:22.985Z,24.58
2022-08-19T12:53:50.819Z,24.25
2022-08-19T12:56:22.304Z,21.40
2022-08-19T12:58:52.877Z,22.58
2022-08-19T13:01:23.035Z,22.45
2022-08-19T13:04:01.342Z,19.63
2022-08-19T13:06:32.053Z,21.92
2022-08-19T13:08:59.782Z,22.92
2022-08-19T13:11:26.870Z,24.23
2022-08-19T13:13:55.949Z,21.63
2022-08-19T13:16:23.023Z,20.13
2022-08-19T13:18:52.808Z,20.17
2022-08-19T13:21:22.623Z,18.35
2022-08-19T13:23:50.453Z,18.90
2022-08-19T13:26:18.658Z,15.50
2022-08-19T13:29:04.483Z,19.42
2022-08-19T13:31:52.709Z,19.55
2022-08-19T13:34:26.605Z,20.40
2022-08-19T13:36:58.302Z,17.35
2022-08-19T13:39:25.067Z,11.85
2022-08-19T13:41:52.520Z,10.13
2022-08-19T13:44:19.854Z,11.20
2022-08-19T13:46:53.903Z,10.27
2022-08-19T13:49:21.426Z,11.32
2022-08-19T13:51:48.292Z,14.27
2022-08-19T13:54:15.216Z,17.20
2022-08-19T13:56:46.926Z,19.30
2022-08-19T13:59:14.499Z,19.02
2022-08-19T14:01:42.393Z,18.58
2022-08-19T14:04:09.829Z,21.33
2022-08-19T14:06:36.850Z,24.17
2022-08-19T14:09:03.848Z,26.15
2022-08-19T14:11:30.901Z,25.30
2022-08-19T14:13:57.558Z,25.45
2022-08-19T14:16:24.284Z,21.35
2022-08-19T14:18:51.031Z,21.85
2022-08-19T14:21:21.998Z,22.30
2022-08-19T14:23:49.005Z,27.27
2022-08-19T14:26:18.426Z,21.20
2022-08-19T14:28:46.501Z,22.33
2022-08-19T14:31:17.557Z,21.70
2022-08-19T14:33:44.307Z,21.27
2022-08-19T14:36:11.173Z,20.38
2022-08-19T14:38:38.021Z,23.73
2022-08-19T14:41:10.586Z,20.75
2022-08-19T14:46:06.139Z,20.90
2022-08-19T14:48:42.596Z,21.00
2022-08-19T14:51:10.727Z,20.20
2022-08-19T14:53:38.017Z,25.77
2022-08-19T14:56:20.382Z,16.25
2022-08-19T14:58:47.647Z,16.17
2022-08-19T15:01:15.050Z,18.73
2022-08-19T15:03:44.267Z,19.85
2022-08-19T15:06:12.692Z,14.13
2022-08-19T15:08:42.033Z,20.63
2022-08-19T15:11:10.896Z,18.45
2022-08-19T15:13:38.897Z,15.98
2022-08-19T15:16:06.153Z,15.60
2022-08-19T15:18:46.633Z,17.88
2022-08-19T15:21:26.794Z,13.45
2022-08-19T15:23:56.575Z,11.88
2022-08-19T15:26:23.836Z,10.40
2022-08-19T15:28:51.126Z,12.07
2022-08-19T15:31:28.328Z,16.45
2022-08-19T15:33:59.055Z,12.07
2022-08-19T15:36:27.151Z,13.48
2022-08-19T15:38:54.137Z,11.90
2022-08-19T15:41:28.995Z,10.32
2022-08-19T15:43:59.523Z,10.10
2022-08-19T15:46:29.229Z,9.68
2022-08-19T15:48:57.553Z,9.43
2022-08-19T15:51:30.368Z,11.05
2022-08-19T15:53:58.383Z,12.00
2022-08-19T15:56:27.471Z,11.55
2022-08-19T15:59:13.215Z,13.65
2022-08-19T16:01:58.629Z,13.10
2022-08-19T16:04:44.141Z,12.02
2022-08-19T16:07:12.701Z,13.32
2022-08-19T16:09:39.535Z,16.70
2022-08-19T16:12:06.827Z,15.65
2022-08-19T16:14:35.723Z,14.98
2022-08-19T16:17:03.209Z,18.30
2022-08-19T16:19:31.030Z,26.60
2022-08-19T16:21:57.864Z,16.27
2022-08-19T16:24:27.473Z,18.08
2022-08-19T16:26:55.562Z,18.83
2022-08-19T16:29:34.887Z,13.60
2022-08-19T16:32:10.309Z,64.82
2022-08-19T16:34:38.940Z,12.32
2022-08-19T16:37:05.720Z,10.73
2022-08-19T16:39:32.780Z,10.63
2022-08-19T16:41:59.747Z,13.27
2022-08-19T16:44:27.455Z,11.48
2022-08-19T16:46:58.730Z,15.35
2022-08-19T16:49:53.158Z,12.57
2022-08-19T16:52:16.492Z,12.98
2022-08-19T16:54:43.597Z,13.80
2022-08-19T16:57:12.027Z,15.82
2022-08-19T16:59:43.683Z,15.25
2022-08-19T17:02:22.490Z,14.77
2022-08-19T17:07:27.812Z,14.75
2022-08-19T17:09:55.452Z,16.45
2022-08-19T17:12:31.549Z,20.23
2022-08-19T17:15:00.763Z,11.82
2022-08-19T17:17:29.410Z,17.40
2022-08-19T17:20:00.666Z,16.13
2022-08-19T17:22:28.962Z,19.95
2022-08-19T17:24:58.243Z,12.75
2022-08-19T17:27:26.968Z,12.48
2022-08-19T17:29:59.973Z,15.75
2022-08-19T17:32:27.287Z,15.38
2022-08-19T17:34:54.376Z,12.55
2022-08-19T17:37:21.369Z,12.82
2022-08-19T17:39:48.340Z,14.65
2022-08-19T17:42:16.595Z,14.65
2022-08-19T17:44:50.451Z,17.27
2022-08-19T17:47:19.594Z,17.73
2022-08-19T17:49:46.672Z,13.60
2022-08-19T17:52:13.568Z,10.68
2022-08-19T17:54:46.702Z,10.25
2022-08-19T17:57:14.145Z,13.43
2022-08-19T17:59:40.891Z,10.20
2022-08-19T18:02:10.363Z,10.27
2022-08-19T18:04:38.479Z,11.55
2022-08-19T18:07:06.326Z,12.30
2022-08-19T18:09:42.276Z,10.48
2022-08-19T18:12:15.632Z,12.90
2022-08-19T18:14:43.004Z,12.52
2022-08-19T18:17:13.454Z,11.20
2022-08-19T18:19:43.741Z,11.50
2022-08-19T18:22:23.543Z,9.13
2022-08-19T18:24:51.006Z,10.98
2022-08-19T18:27:17.950Z,9.82
2022-08-19T18:29:45.554Z,8.63
2022-08-19T18:32:12.940Z,13.55
2022-08-19T18:34:42.454Z,7.38
2022-08-19T18:37:10.108Z,6.22
2022-08-19T18:39:55.848Z,7.70
2022-08-19T18:42:41.669Z,11.10
2022-08-19T18:45:28.603Z,11.65
2022-08-19T18:48:26.438Z,11.18
2022-08-19T18:50:59.553Z,11.27
2022-08-19T18:53:28.947Z,9.32
2022-08-19T18:55:56.356Z,9.48
2022-08-19T18:58:33.843Z,11.23
2022-08-19T19:01:14.101Z,9.93
2022-08-19T19:03:53.436Z,10.40
2022-08-19T19:06:25.981Z,14.20
2022-08-19T19:08:54.932Z,12.18
2022-08-19T19:11:26.059Z,11.55
2022-08-19T19:13:55.291Z,10.55
2022-08-19T19:16:24.659Z,10.98
2022-08-19T19:18:52.825Z,12.27
2022-08-19T19:21:22.956Z,14.48
2022-08-19T19:23:50.810Z,12.95
2022-08-19T19:26:17.726Z,13.32
2022-08-19T19:28:45.875Z,12.60
2022-08-19T19:31:25.418Z,13.57
2022-08-19T19:33:54.223Z,13.38
2022-08-19T19:36:21.067Z,14.93
2022-08-19T19:38:49.030Z,11.40
2022-08-19T19:41:23.391Z,14.45
2022-08-19T19:44:10.107Z,15.63
2022-08-19T19:46:39.968Z,17.42
2022-08-19T19:49:06.752Z,15.23
2022-08-19T19:51:37.612Z,14.73
2022-08-19T19:54:05.750Z,16.23
2022-08-19T19:56:32.716Z,17.38
2022-08-19T19:58:59.687Z,22.63
2022-08-19T20:01:27.180Z,14.77
2022-08-19T20:03:54.675Z,17.80
2022-08-19T20:06:21.379Z,20.50
2022-08-19T20:09:07.225Z,17.35
2022-08-19T20:11:41.709Z,14.48
2022-08-19T20:14:44.100Z,14.15
2022-08-19T20:17:11.530Z,12.55
2022-08-19T20:19:38.132Z,13.73
2022-08-19T20:22:06.581Z,12.77
2022-08-19T20:24:36.328Z,12.60
2022-08-19T20:27:04.833Z,10.75
2022-08-19T20:29:37.875Z,10.55
2022-08-19T20:32:06.909Z,11.10
2022-08-19T20:34:33.869Z,8.88
2022-08-19T20:37:00.614Z,9.02
2022-08-19T20:39:27.305Z,12.40
2022-08-19T20:41:56.255Z,9.10
2022-08-19T20:44:25.402Z,9.07
2022-08-19T20:46:55.261Z,10.50
2022-08-19T20:49:27.453Z,11.43
2022-08-19T20:51:55.934Z,8.50
2022-08-19T20:54:25.402Z,8.73
2022-08-19T20:56:52.913Z,8.82
2022-08-19T20:59:20.802Z,10.48
2022-08-19T21:01:48.500Z,9.75
2022-08-19T21:04:15.488Z,10.23
2022-08-19T21:06:45.314Z,9.50
2022-08-19T21:09:12.435Z,9.73
2022-08-19T21:11:39.272Z,8.35
2022-08-19T21:14:06.145Z,6.78
2022-08-19T21:16:33.873Z,7.80
2022-08-19T21:19:02.888Z,8.88
2022-08-19T21:21:29.671Z,9.82
2022-08-19T21:23:57.211Z,9.45
2022-08-19T21:26:24.388Z,7.88
2022-08-19T21:28:51.111Z,6.90
2022-08-19T21:31:18.034Z,6.00
2022-08-19T21:33:45.201Z,7.75
2022-08-19T21:36:12.040Z,7.90
2022-08-19T21:38:38.765Z,9.80
2022-08-19T21:41:06.562Z,6.65
2022-08-19T21:43:37.491Z,9.98
2022-08-19T21:46:04.747Z,8.65
2022-08-19T21:48:31.538Z,12.15
2022-08-19T21:51:01.261Z,11.40
2022-08-19T21:53:31.748Z,11.45
2022-08-19T21:58:30.640Z,9.95
2022-08-19T22:01:01.756Z,10.85
2022-08-19T22:03:29.118Z,13.35
2022-08-19T22:05:55.948Z,15.95
2022-08-19T22:08:22.667Z,15.48
2022-08-19T22:10:49.866Z,16.70
2022-08-19T22:13:18.265Z,16.33
2022-08-19T22:15:51.975Z,15.27
2022-08-19T22:18:19.020Z,19.63
2022-08-19T22:20:45.885Z,20.90
2022-08-19T22:23:23.412Z,17.52
2022-08-19T22:26:01.312Z,21.08
2022-08-19T22:28:30.750Z,20.25
2022-08-19T22:30:59.639Z,21.08
2022-08-19T22:33:29.887Z,20.95
2022-08-19T22:35:59.621Z,23.77
2022-08-19T22:38:26.692Z,21.13
2022-08-19T22:40:56.462Z,18.92
2022-08-19T22:43:31.963Z,20.80
2022-08-19T22:46:02.348Z,23.33
2022-08-19T22:48:32.764Z,20.45
2022-08-19T22:51:26.645Z,22.45
2022-08-19T22:53:56.483Z,21.13
2022-08-19T22:56:23.405Z,18.42
2022-08-19T22:58:50.792Z,18.65
2022-08-19T23:01:27.579Z,14.65
2022-08-19T23:04:00.450Z,12.48
2022-08-19T23:06:33.988Z,14.05
2022-08-19T23:09:07.653Z,12.25
2022-08-19T23:11:42.147Z,13.77
2022-08-19T23:14:11.095Z,12.02
2022-08-19T23:16:38.172Z,9.85
2022-08-19T23:19:07.251Z,9.38
2022-08-19T23:21:36.222Z,10.55
2022-08-19T23:24:03.427Z,8.25
2022-08-19T23:26:35.872Z,12.00
2022-08-19T23:29:22.828Z,8.98
2022-08-19T23:31:49.859Z,10.85
2022-08-19T23:34:16.645Z,8.88
2022-08-19T23:36:46.591Z,12.93
2022-08-19T23:39:13.487Z,9.50
2022-08-19T23:41:52.092Z,8.55
2022-08-19T23:44:18.885Z,9.00
2022-08-19T23:46:55.760Z,11.35
2022-08-19T23:49:26.239Z,10.63
2022-08-19T23:51:56.377Z,8.88
2022-08-19T23:54:27.448Z,11.25
2022-08-19T23:57:13.298Z,10.00
2022-08-19T23:59:42.471Z,11.43
